createdAt,value
2019-01-06T00:00:01.262Z,5.70
2019-01-06T00:02:50.672Z,5.60
2019-01-06T00:05:43.170Z,5.60
2019-01-06T00:08:27.152Z,5.60
2019-01-06T00:11:21.219Z,5.60
2019-01-06T00:14:09.391Z,5.50
2019-01-06T00:16:56.221Z,5.60
2019-01-06T00:19:42.552Z,5.60
2019-01-06T00:22:23.573Z,5.50
2019-01-06T00:25:14.903Z,5.50
2019-01-06T00:28:00.266Z,5.50
2019-01-06T00:30:51.471Z,5.50
2019-01-06T00:33:39.792Z,5.50
2019-01-06T00:36:27.961Z,5.50
2019-01-06T00:39:14.812Z,5.50
2019-01-06T00:42:01.704Z,5.50
2019-01-06T00:44:52.894Z,5.40
2019-01-06T00:47:41.162Z,5.50
2019-01-06T00:50:28.056Z,5.50
2019-01-06T00:53:25.474Z,5.60
2019-01-06T00:56:18.338Z,5.60
2019-01-06T00:59:04.950Z,5.70
2019-01-06T01:01:53.213Z,5.60
2019-01-06T01:04:39.844Z,5.60
2019-01-06T01:07:38.501Z,5.60
2019-01-06T01:10:38.837Z,5.60
2019-01-06T01:13:25.488Z,5.60
2019-01-06T01:16:25.752Z,5.60
2019-01-06T01:19:08.420Z,5.60
2019-01-06T01:21:50.013Z,5.60
2019-01-06T01:24:41.511Z,5.60
2019-01-06T01:27:29.999Z,5.60
2019-01-06T01:30:35.088Z,5.60
2019-01-06T01:33:22.281Z,5.50
2019-01-06T01:36:19.409Z,5.50
2019-01-06T01:39:05.990Z,5.50
2019-01-06T01:41:57.237Z,5.50
2019-01-06T01:44:44.110Z,5.50
2019-01-06T01:47:47.298Z,5.60
2019-01-06T01:50:44.430Z,5.60
2019-01-06T01:53:28.687Z,5.70
2019-01-06T01:56:08.321Z,5.70
2019-01-06T01:58:59.520Z,5.60
2019-01-06T02:01:59.498Z,5.50
2019-01-06T02:04:40.822Z,5.50
2019-01-06T02:07:22.466Z,5.50
2019-01-06T02:10:28.617Z,5.60
2019-01-06T02:13:13.383Z,5.60
2019-01-06T02:16:01.630Z,5.60
2019-01-06T02:18:48.434Z,5.60
2019-01-06T02:21:35.317Z,5.60
2019-01-06T02:24:25.495Z,5.60
2019-01-06T02:27:20.713Z,5.60
2019-01-06T02:30:15.050Z,5.60
2019-01-06T02:33:04.622Z,5.60
2019-01-06T02:35:55.641Z,5.60
2019-01-06T02:38:42.654Z,5.60
2019-01-06T02:41:43.971Z,5.70
2019-01-06T02:44:35.521Z,5.70
2019-01-06T02:47:22.993Z,5.70
2019-01-06T02:50:09.763Z,5.70
2019-01-06T02:53:16.200Z,5.70
2019-01-06T02:56:06.641Z,5.70
2019-01-06T02:58:53.335Z,5.60
2019-01-06T03:01:40.041Z,5.60
2019-01-06T03:04:35.532Z,5.70
2019-01-06T03:07:35.863Z,5.60
2019-01-06T03:10:19.297Z,5.60
2019-01-06T03:13:13.690Z,5.70
2019-01-06T03:16:00.609Z,5.70
2019-01-06T03:18:45.915Z,5.70
2019-01-06T03:21:44.626Z,5.80
2019-01-06T03:24:32.773Z,5.80
2019-01-06T03:27:10.964Z,5.80
2019-01-06T03:29:55.383Z,5.80
2019-01-06T03:32:42.293Z,5.80
2019-01-06T03:35:29.021Z,5.80
2019-01-06T03:38:19.961Z,5.80
2019-01-06T03:41:22.446Z,5.80
2019-01-06T03:44:09.436Z,5.90
2019-01-06T03:47:03.548Z,5.90
2019-01-06T03:49:51.367Z,5.80
2019-01-06T03:52:51.784Z,5.80
2019-01-06T03:55:38.497Z,5.80
2019-01-06T03:58:30.898Z,5.80
2019-01-06T04:01:34.220Z,5.80
2019-01-06T04:04:21.023Z,5.90
2019-01-06T04:07:07.615Z,5.90
2019-01-06T04:10:07.863Z,5.90
2019-01-06T04:13:11.090Z,5.90
2019-01-06T04:15:52.756Z,5.90
2019-01-06T04:18:37.120Z,6.00
2019-01-06T04:21:26.987Z,6.00
2019-01-06T04:24:24.310Z,6.00
2019-01-06T04:27:21.698Z,6.00
2019-01-06T04:30:10.738Z,6.00
2019-01-06T04:32:58.420Z,6.10
2019-01-06T04:35:51.704Z,6.10
2019-01-06T04:38:45.940Z,6.20
2019-01-06T04:41:52.068Z,6.10
2019-01-06T04:44:56.338Z,6.00
2019-01-06T04:47:44.002Z,6.00
2019-01-06T04:50:30.658Z,5.90
2019-01-06T04:53:17.619Z,5.90
2019-01-06T04:56:20.686Z,6.10
2019-01-06T04:59:07.285Z,6.10
2019-01-06T05:02:07.600Z,6.20
2019-01-06T05:04:56.846Z,6.20
2019-01-06T05:07:54.822Z,6.20
2019-01-06T05:10:48.812Z,6.10
2019-01-06T05:13:51.977Z,6.10
2019-01-06T05:16:50.424Z,6.10
2019-01-06T05:19:41.395Z,6.10
2019-01-06T05:22:32.391Z,6.20
2019-01-06T05:25:18.973Z,6.20
2019-01-06T05:28:19.198Z,6.20
2019-01-06T05:31:23.333Z,6.10
2019-01-06T05:34:13.631Z,6.10
2019-01-06T05:36:57.675Z,6.10
2019-01-06T05:39:45.845Z,6.10
2019-01-06T05:42:42.964Z,6.20
2019-01-06T05:45:38.361Z,6.10
2019-01-06T05:48:27.871Z,6.10
2019-01-06T05:51:16.113Z,6.10
2019-01-06T05:54:07.310Z,6.20
2019-01-06T05:56:54.257Z,6.10
2019-01-06T05:59:44.656Z,6.10
2019-01-06T06:02:31.765Z,6.10
2019-01-06T06:05:22.966Z,6.10
2019-01-06T06:08:06.596Z,6.00
2019-01-06T06:11:06.234Z,6.10
2019-01-06T06:13:53.080Z,6.10
2019-01-06T06:16:42.288Z,6.10
2019-01-06T06:19:39.781Z,6.00
2019-01-06T06:22:27.973Z,6.00
2019-01-06T06:25:15.441Z,5.90
2019-01-06T06:28:04.031Z,5.90
2019-01-06T06:30:45.849Z,5.90
2019-01-06T06:33:32.604Z,5.90
2019-01-06T06:36:21.645Z,6.00
2019-01-06T06:39:08.530Z,6.00
2019-01-06T06:41:55.499Z,6.00
2019-01-06T06:44:42.315Z,6.00
2019-01-06T06:47:34.129Z,6.00
2019-01-06T06:50:40.167Z,6.00
2019-01-06T06:53:33.789Z,6.00
2019-01-06T06:56:39.945Z,6.10
2019-01-06T06:59:46.062Z,6.00
2019-01-06T07:03:09.719Z,6.10
2019-01-06T07:05:59.465Z,6.10
2019-01-06T07:08:46.433Z,6.10
2019-01-06T07:11:47.479Z,6.00
2019-01-06T07:14:27.170Z,6.10
2019-01-06T07:17:45.088Z,6.00
2019-01-06T07:20:31.655Z,6.00
2019-01-06T07:23:18.618Z,6.00
2019-01-06T07:26:19.358Z,6.00
2019-01-06T07:29:19.410Z,6.10
2019-01-06T07:32:08.723Z,6.10
2019-01-06T07:34:57.637Z,6.00
2019-01-06T07:37:48.790Z,6.00
2019-01-06T07:40:42.806Z,6.00
2019-01-06T07:43:24.926Z,6.00
2019-01-06T07:46:07.803Z,6.00
2019-01-06T07:48:54.410Z,5.90
2019-01-06T07:51:51.532Z,6.00
2019-01-06T07:54:29.541Z,6.00
2019-01-06T07:57:09.411Z,6.00
2019-01-06T08:00:14.958Z,6.00
2019-01-06T08:02:54.993Z,5.90
2019-01-06T08:05:44.211Z,5.90
2019-01-06T08:08:31.295Z,5.90
2019-01-06T08:11:25.527Z,5.90
2019-01-06T08:14:12.330Z,5.90
2019-01-06T08:17:11.941Z,5.90
2019-01-06T08:19:56.091Z,5.90
2019-01-06T08:22:44.145Z,5.90
2019-01-06T08:25:30.965Z,5.90
2019-01-06T08:28:37.366Z,6.00
2019-01-06T08:31:22.411Z,6.00
2019-01-06T08:34:09.342Z,5.90
2019-01-06T08:37:08.244Z,5.90
2019-01-06T08:40:02.243Z,6.00
2019-01-06T08:42:48.861Z,5.90
2019-01-06T08:45:43.499Z,5.90
2019-01-06T08:48:30.398Z,5.90
2019-01-06T08:51:18.524Z,5.90
2019-01-06T08:54:05.524Z,5.90
2019-01-06T08:56:54.758Z,6.00
2019-01-06T08:59:57.874Z,5.90
2019-01-06T09:02:56.278Z,5.90
2019-01-06T09:05:49.535Z,5.90
2019-01-06T09:08:49.793Z,5.90
2019-01-06T09:11:36.652Z,5.90
2019-01-06T09:14:38.651Z,5.90
2019-01-06T09:17:29.929Z,5.90
2019-01-06T09:20:10.955Z,5.90
2019-01-06T09:23:15.289Z,5.90
2019-01-06T09:26:02.107Z,5.90
2019-01-06T09:28:53.607Z,5.90
2019-01-06T09:31:40.461Z,5.90
2019-01-06T09:34:29.669Z,6.00
2019-01-06T09:37:18.274Z,6.00
2019-01-06T09:40:09.559Z,6.00
2019-01-06T09:43:00.758Z,6.00
2019-01-06T09:45:48.943Z,6.00
2019-01-06T09:48:37.095Z,6.00
2019-01-06T09:51:28.019Z,6.10
2019-01-06T09:54:20.520Z,6.10
2019-01-06T09:57:08.620Z,6.10
2019-01-06T09:59:55.399Z,6.10
2019-01-06T10:02:45.131Z,6.10
2019-01-06T10:05:36.080Z,6.10
2019-01-06T10:08:38.862Z,6.10
2019-01-06T10:11:32.776Z,6.10
2019-01-06T10:14:26.972Z,6.10
2019-01-06T10:17:30.386Z,6.20
2019-01-06T10:20:19.734Z,6.20
2019-01-06T10:23:23.424Z,6.20
2019-01-06T10:26:14.450Z,6.20
2019-01-06T10:29:21.138Z,6.30
2019-01-06T10:32:09.656Z,6.30
2019-01-06T10:34:56.338Z,6.40
2019-01-06T10:38:02.729Z,6.30
2019-01-06T10:40:56.842Z,6.30
2019-01-06T10:43:38.365Z,6.30
2019-01-06T10:46:25.025Z,6.30
2019-01-06T10:49:28.145Z,6.30
2019-01-06T10:52:31.533Z,6.30
2019-01-06T10:55:18.973Z,6.30
2019-01-06T10:58:05.574Z,6.30
2019-01-06T11:00:52.525Z,6.40
2019-01-06T11:03:53.142Z,6.40
2019-01-06T11:06:39.979Z,6.50
2019-01-06T11:09:34.217Z,6.50
2019-01-06T11:12:21.635Z,6.50
2019-01-06T11:15:24.883Z,6.50
2019-01-06T11:18:14.671Z,6.50
2019-01-06T11:21:15.010Z,6.60
2019-01-06T11:24:06.118Z,6.60
2019-01-06T11:26:50.222Z,6.70
2019-01-06T11:29:29.878Z,6.70
2019-01-06T11:32:16.728Z,6.70
2019-01-06T11:35:23.316Z,6.70
2019-01-06T11:38:14.562Z,6.50
2019-01-06T11:41:07.895Z,6.50
2019-01-06T11:43:43.791Z,6.50
2019-01-06T11:46:44.097Z,6.40
2019-01-06T11:49:39.475Z,6.40
2019-01-06T11:52:26.341Z,6.30
2019-01-06T11:55:13.187Z,6.30
2019-01-06T11:58:02.609Z,6.30
2019-01-06T12:00:53.579Z,6.20
2019-01-06T12:03:41.247Z,6.20
2019-01-06T12:06:38.395Z,6.20
2019-01-06T12:09:15.463Z,6.10
2019-01-06T12:12:07.526Z,6.20
2019-01-06T12:14:58.861Z,6.20
2019-01-06T12:17:47.005Z,6.30
2019-01-06T12:20:34.321Z,6.40
2019-01-06T12:23:37.681Z,6.40
2019-01-06T12:26:24.819Z,6.50
2019-01-06T12:29:11.500Z,6.50
2019-01-06T12:32:11.495Z,6.40
2019-01-06T12:34:58.676Z,6.30
2019-01-06T12:37:45.556Z,6.30
2019-01-06T12:40:33.751Z,6.20
2019-01-06T12:43:21.988Z,6.10
2019-01-06T12:46:08.890Z,6.20
2019-01-06T12:49:08.906Z,6.20
2019-01-06T12:51:55.800Z,6.20
2019-01-06T12:54:43.998Z,6.20
2019-01-06T12:57:32.487Z,6.20
2019-01-06T13:00:28.684Z,6.20
2019-01-06T13:03:26.309Z,6.20
2019-01-06T13:06:24.108Z,6.20
2019-01-06T13:09:11.084Z,6.10
2019-01-06T13:11:57.776Z,6.20
2019-01-06T13:14:46.257Z,6.30
2019-01-06T13:17:44.162Z,6.30
2019-01-06T13:20:42.146Z,6.40
2019-01-06T13:23:45.260Z,6.40
2019-01-06T13:26:32.653Z,6.40
2019-01-06T13:29:23.657Z,6.20
2019-01-06T13:32:30.079Z,6.20
2019-01-06T13:35:16.725Z,6.20
2019-01-06T13:38:18.623Z,6.20
2019-01-06T13:41:09.846Z,6.20
2019-01-06T13:43:58.596Z,6.20
2019-01-06T13:46:46.850Z,6.20
2019-01-06T13:49:37.770Z,6.20
2019-01-06T13:52:24.673Z,6.20
2019-01-06T13:55:11.244Z,6.30
2019-01-06T13:57:58.148Z,6.20
2019-01-06T14:00:45.304Z,6.20
2019-01-06T14:03:39.604Z,6.20
2019-01-06T14:06:42.890Z,6.30
2019-01-06T14:09:40.390Z,6.30
2019-01-06T14:12:27.160Z,6.30
2019-01-06T14:15:25.804Z,6.40
2019-01-06T14:18:12.427Z,6.40
2019-01-06T14:20:59.174Z,6.40
2019-01-06T14:24:08.937Z,6.30
2019-01-06T14:27:06.451Z,6.10
2019-01-06T14:29:49.258Z,6.00
2019-01-06T14:32:36.427Z,6.00
2019-01-06T14:35:34.108Z,6.00
2019-01-06T14:38:21.349Z,6.10
2019-01-06T14:41:06.968Z,6.00
2019-01-06T14:43:55.779Z,6.10
2019-01-06T14:46:50.208Z,6.20
2019-01-06T14:49:50.846Z,6.20
2019-01-06T14:52:37.422Z,6.00
2019-01-06T14:55:29.235Z,6.10
2019-01-06T14:58:20.492Z,6.00
2019-01-06T15:01:13.263Z,5.90
2019-01-06T15:04:00.200Z,5.90
2019-01-06T15:06:34.256Z,6.00
2019-01-06T15:09:22.813Z,6.10
2019-01-06T15:12:09.026Z,6.10
2019-01-06T15:15:08.558Z,6.10
2019-01-06T15:18:04.250Z,6.10
2019-01-06T15:20:58.087Z,6.10
2019-01-06T15:24:04.182Z,5.80
2019-01-06T15:27:01.207Z,5.70
2019-01-06T15:30:01.500Z,5.80
2019-01-06T15:32:55.498Z,5.80
2019-01-06T15:35:42.602Z,5.70
2019-01-06T15:38:24.156Z,5.80
2019-01-06T15:41:10.782Z,5.80
2019-01-06T15:44:04.980Z,5.80
2019-01-06T15:46:54.143Z,5.80
2019-01-06T15:49:46.627Z,5.90
2019-01-06T15:52:30.729Z,5.90
2019-01-06T15:55:28.061Z,6.00
2019-01-06T15:58:16.427Z,5.90
2019-01-06T16:01:25.290Z,5.80
2019-01-06T16:04:11.661Z,5.90
2019-01-06T16:06:59.923Z,5.90
2019-01-06T16:10:07.603Z,6.00
2019-01-06T16:13:10.731Z,6.00
2019-01-06T16:15:58.935Z,6.00
2019-01-06T16:18:39.624Z,5.90
2019-01-06T16:21:40.351Z,5.90
2019-01-06T16:24:28.588Z,6.00
2019-01-06T16:27:18.364Z,5.90
2019-01-06T16:30:00.470Z,5.90
2019-01-06T16:32:51.812Z,5.90
2019-01-06T16:35:38.556Z,5.90
2019-01-06T16:38:24.015Z,5.90
2019-01-06T16:41:07.320Z,5.90
2019-01-06T16:44:02.018Z,5.90
2019-01-06T16:46:56.343Z,5.90
2019-01-06T16:49:44.966Z,5.90
2019-01-06T16:52:35.347Z,5.90
2019-01-06T16:55:39.414Z,5.90
2019-01-06T16:58:28.548Z,5.80
2019-01-06T17:01:16.846Z,5.70
2019-01-06T17:04:05.071Z,5.70
2019-01-06T17:06:47.500Z,5.70
2019-01-06T17:09:37.523Z,5.70
2019-01-06T17:12:37.920Z,5.60
2019-01-06T17:15:42.745Z,5.80
2019-01-06T17:18:23.640Z,5.90
2019-01-06T17:21:10.575Z,5.80
2019-01-06T17:23:54.063Z,5.80
2019-01-06T17:26:48.743Z,5.80
2019-01-06T17:29:52.125Z,5.80
2019-01-06T17:32:51.980Z,5.80
2019-01-06T17:35:43.504Z,5.90
2019-01-06T17:38:25.562Z,5.80
2019-01-06T17:41:20.062Z,5.80
2019-01-06T17:44:11.104Z,5.80
2019-01-06T17:47:08.505Z,5.80
2019-01-06T17:49:55.420Z,5.90
2019-01-06T17:52:44.451Z,5.90
2019-01-06T17:55:31.056Z,5.80
2019-01-06T17:58:34.436Z,5.80
2019-01-06T18:01:20.918Z,5.80
2019-01-06T18:04:15.704Z,5.80
2019-01-06T18:07:10.182Z,5.80
2019-01-06T18:09:57.340Z,5.80
2019-01-06T18:12:45.518Z,5.80
2019-01-06T18:15:33.207Z,5.80
2019-01-06T18:18:26.097Z,5.70
2019-01-06T18:21:20.339Z,5.80
2019-01-06T18:24:08.487Z,5.90
2019-01-06T18:26:55.117Z,5.80
2019-01-06T18:29:43.289Z,5.80
2019-01-06T18:32:26.457Z,5.80
2019-01-06T18:35:17.652Z,5.80
2019-01-06T18:38:04.563Z,5.70
2019-01-06T18:40:55.803Z,5.60
2019-01-06T18:43:47.802Z,5.50
2019-01-06T18:46:37.415Z,5.60
2019-01-06T18:49:25.177Z,5.40
2019-01-06T18:52:10.935Z,5.30
2019-01-06T18:55:01.075Z,5.50
2019-01-06T18:57:55.424Z,5.60
2019-01-06T19:00:43.578Z,5.70
2019-01-06T19:03:44.932Z,5.60
2019-01-06T19:06:38.936Z,5.60
2019-01-06T19:09:26.648Z,5.60
2019-01-06T19:12:23.960Z,5.70
2019-01-06T19:15:03.072Z,5.70
2019-01-06T19:17:55.288Z,5.70
2019-01-06T19:20:52.666Z,5.80
2019-01-06T19:23:59.059Z,5.80
2019-01-06T19:26:54.476Z,5.80
2019-01-06T19:29:40.871Z,5.80
2019-01-06T19:32:35.015Z,5.70
2019-01-06T19:35:16.919Z,5.70
2019-01-06T19:38:03.709Z,5.90
2019-01-06T19:40:50.613Z,5.90
2019-01-06T19:43:37.560Z,6.00
2019-01-06T19:46:40.113Z,5.70
2019-01-06T19:49:21.819Z,5.60
2019-01-06T19:52:03.383Z,5.70
2019-01-06T19:54:53.953Z,5.60
2019-01-06T19:57:47.456Z,5.50
2019-01-06T20:00:44.949Z,5.50
2019-01-06T20:03:31.554Z,5.50
2019-01-06T20:06:34.935Z,5.60
2019-01-06T20:09:26.475Z,5.60
2019-01-06T20:12:23.570Z,5.50
2019-01-06T20:15:10.575Z,5.40
2019-01-06T20:17:51.298Z,5.40
2019-01-06T20:20:38.200Z,5.50
2019-01-06T20:23:29.396Z,5.50
2019-01-06T20:26:29.730Z,5.60
2019-01-06T20:29:13.736Z,5.60
2019-01-06T20:32:01.902Z,5.60
2019-01-06T20:34:48.780Z,5.70
2019-01-06T20:37:32.458Z,5.50
2019-01-06T20:40:23.678Z,5.50
2019-01-06T20:43:10.241Z,5.50
2019-01-06T20:45:57.545Z,5.50
2019-01-06T20:48:45.636Z,5.50
2019-01-06T20:51:31.854Z,5.50
2019-01-06T20:54:34.231Z,5.50
2019-01-06T20:57:29.945Z,5.30
2019-01-06T21:00:13.924Z,5.40
2019-01-06T21:03:00.809Z,5.50
2019-01-06T21:05:46.131Z,5.50
2019-01-06T21:08:33.592Z,5.40
2019-01-06T21:11:22.493Z,5.40
2019-01-06T21:14:24.316Z,5.40
2019-01-06T21:17:15.539Z,5.50
2019-01-06T21:20:06.913Z,5.40
2019-01-06T21:22:53.521Z,5.40
2019-01-06T21:25:47.845Z,5.40
2019-01-06T21:28:34.941Z,5.50
2019-01-06T21:31:26.115Z,5.50
2019-01-06T21:34:08.198Z,5.50
2019-01-06T21:36:57.750Z,5.50
2019-01-06T21:39:50.355Z,5.50
2019-01-06T21:42:44.477Z,5.50
2019-01-06T21:45:44.951Z,5.50
2019-01-06T21:48:38.896Z,5.40
2019-01-06T21:51:22.752Z,5.50
2019-01-06T21:54:06.203Z,5.40
2019-01-06T21:56:52.810Z,5.40
2019-01-06T21:59:41.098Z,5.40
2019-01-06T22:02:28.203Z,5.30
2019-01-06T22:05:20.644Z,5.30
2019-01-06T22:08:04.848Z,5.20
2019-01-06T22:10:51.811Z,5.20
2019-01-06T22:13:38.818Z,5.20
2019-01-06T22:16:25.214Z,5.20
2019-01-06T22:19:11.777Z,5.10
2019-01-06T22:22:12.378Z,4.90
2019-01-06T22:25:12.483Z,4.80
2019-01-06T22:27:54.747Z,4.90
2019-01-06T22:30:42.365Z,4.90
2019-01-06T22:33:26.687Z,5.00
2019-01-06T22:36:08.498Z,5.00
2019-01-06T22:38:49.715Z,5.10
2019-01-06T22:41:36.426Z,5.10
2019-01-06T22:44:24.680Z,5.10
2019-01-06T22:47:11.494Z,5.20
2019-01-06T22:50:17.857Z,5.20
2019-01-06T22:53:09.036Z,5.20
2019-01-06T22:55:56.586Z,5.20
2019-01-06T22:58:52.460Z,5.20
2019-01-06T23:01:39.366Z,5.20
2019-01-06T23:04:30.356Z,5.20
2019-01-06T23:07:23.594Z,5.20
2019-01-06T23:10:11.916Z,5.20
2019-01-06T23:12:58.537Z,5.20
2019-01-06T23:15:55.895Z,5.10
2019-01-06T23:18:51.754Z,5.10
2019-01-06T23:21:55.058Z,5.10
2019-01-06T23:24:41.773Z,5.10
2019-01-06T23:27:38.806Z,5.10
2019-01-06T23:30:25.705Z,5.10
2019-01-06T23:33:12.220Z,5.20
2019-01-06T23:36:00.538Z,5.20
2019-01-06T23:38:47.219Z,5.20
2019-01-06T23:41:33.966Z,5.10
2019-01-06T23:44:32.731Z,5.10
2019-01-06T23:47:14.931Z,5.10
2019-01-06T23:50:12.923Z,5.10
2019-01-06T23:52:59.603Z,5.00
2019-01-06T23:55:46.078Z,5.00
2019-01-06T23:58:32.927Z,5.00
